createdAt,value
2022-08-31T00:00:33.925Z,68.79
2022-08-31T00:03:00.492Z,68.90
2022-08-31T00:05:26.841Z,68.73
2022-08-31T00:07:53.307Z,68.78
2022-08-31T00:10:32.636Z,68.83
2022-08-31T00:13:03.525Z,68.89
2022-08-31T00:15:30.417Z,68.68
2022-08-31T00:17:56.877Z,68.95
2022-08-31T00:20:33.146Z,68.99
2022-08-31T00:23:00.498Z,68.65
2022-08-31T00:25:26.857Z,69.16
2022-08-31T00:27:53.257Z,68.89
2022-08-31T00:30:19.590Z,69.19
2022-08-31T00:32:46.137Z,69.11
2022-08-31T00:35:14.583Z,69.05
2022-08-31T00:37:40.913Z,69.16
2022-08-31T00:40:07.409Z,68.84
2022-08-31T00:42:33.729Z,68.87
2022-08-31T00:45:00.093Z,69.16
2022-08-31T00:47:26.489Z,69.13
2022-08-31T00:49:53.057Z,68.90
2022-08-31T00:52:19.517Z,69.15
2022-08-31T00:54:45.856Z,68.81
2022-08-31T00:57:12.232Z,68.79
2022-08-31T00:59:38.615Z,68.67
2022-08-31T01:02:04.968Z,68.67
2022-08-31T01:04:31.398Z,69.07
2022-08-31T01:06:57.957Z,68.75
2022-08-31T01:09:24.536Z,69.14
2022-08-31T01:11:51.066Z,69.25
2022-08-31T01:14:17.529Z,68.80
2022-08-31T01:16:44.028Z,69.24
2022-08-31T01:19:10.465Z,68.82
2022-08-31T01:21:36.836Z,69.17
2022-08-31T01:24:03.172Z,69.08
2022-08-31T01:26:29.943Z,68.78
2022-08-31T01:28:56.402Z,69.08
2022-08-31T01:31:22.738Z,69.12
2022-08-31T01:33:49.136Z,68.90
2022-08-31T01:36:16.312Z,69.12
2022-08-31T01:38:42.823Z,68.84
2022-08-31T01:41:09.134Z,68.75
2022-08-31T01:43:35.606Z,69.15
2022-08-31T01:46:02.145Z,68.78
2022-08-31T01:48:29.074Z,68.72
2022-08-31T01:50:55.514Z,69.00
2022-08-31T01:53:21.902Z,69.04
2022-08-31T01:55:48.227Z,68.77
2022-08-31T01:58:14.712Z,69.16
2022-08-31T02:00:41.095Z,68.75
2022-08-31T02:03:07.517Z,69.08
2022-08-31T02:05:33.815Z,68.97
2022-08-31T02:08:00.599Z,68.82
2022-08-31T02:10:26.923Z,69.21
2022-08-31T02:12:53.353Z,68.85
2022-08-31T02:15:20.231Z,69.11
2022-08-31T02:17:46.521Z,69.07
2022-08-31T02:20:12.864Z,69.16
2022-08-31T02:22:39.843Z,68.88
2022-08-31T02:25:06.177Z,69.10
2022-08-31T02:27:34.913Z,68.89
2022-08-31T02:30:01.393Z,68.85
2022-08-31T02:32:27.886Z,68.72
2022-08-31T02:34:54.415Z,69.22
2022-08-31T02:37:21.076Z,69.02
2022-08-31T02:39:47.457Z,68.89
2022-08-31T02:42:15.698Z,69.19
2022-08-31T02:44:44.744Z,68.92
2022-08-31T02:47:11.267Z,69.00
2022-08-31T02:49:37.565Z,68.92
2022-08-31T02:52:03.977Z,68.72
2022-08-31T02:54:30.330Z,69.25
2022-08-31T02:56:56.709Z,68.81
2022-08-31T02:59:23.898Z,69.02
2022-08-31T03:01:50.427Z,69.05
2022-08-31T03:04:16.957Z,69.01
2022-08-31T03:06:43.557Z,68.60
2022-08-31T03:09:10.116Z,69.18
2022-08-31T03:11:36.608Z,68.45
2022-08-31T03:14:04.573Z,68.77
2022-08-31T03:16:31.104Z,68.77
2022-08-31T03:18:57.461Z,68.95
2022-08-31T03:21:23.884Z,68.99
2022-08-31T03:23:50.301Z,68.79
2022-08-31T03:26:17.300Z,68.70
2022-08-31T03:28:43.636Z,69.13
2022-08-31T03:31:09.961Z,69.22
2022-08-31T03:33:36.404Z,68.86
2022-08-31T03:36:02.725Z,68.81
2022-08-31T03:38:29.036Z,68.66
2022-08-31T03:40:55.641Z,68.74
2022-08-31T03:43:21.965Z,68.68
2022-08-31T03:45:48.334Z,68.89
2022-08-31T03:48:14.825Z,68.87
2022-08-31T03:50:41.185Z,69.05
2022-08-31T03:53:07.645Z,68.68
2022-08-31T03:55:34.042Z,68.50
2022-08-31T03:58:00.360Z,68.69
2022-08-31T04:00:26.680Z,68.53
2022-08-31T04:02:54.917Z,68.93
2022-08-31T04:05:21.339Z,68.65
2022-08-31T04:07:48.104Z,68.72
2022-08-31T04:10:14.537Z,68.92
2022-08-31T04:12:41.212Z,69.14
2022-08-31T04:15:07.608Z,68.59
2022-08-31T04:17:33.910Z,68.98
2022-08-31T04:20:00.337Z,68.92
2022-08-31T04:22:26.852Z,68.74
2022-08-31T04:24:53.255Z,69.15
2022-08-31T04:27:19.707Z,68.64
2022-08-31T04:29:46.219Z,68.68
2022-08-31T04:32:12.703Z,68.96
2022-08-31T04:34:39.185Z,69.00
2022-08-31T04:37:06.009Z,68.97
2022-08-31T04:39:33.214Z,68.82
2022-08-31T04:41:59.533Z,68.79
2022-08-31T04:44:26.214Z,68.66
2022-08-31T04:46:52.523Z,68.73
2022-08-31T04:49:19.174Z,68.63
2022-08-31T04:51:45.674Z,68.92
2022-08-31T04:54:11.993Z,68.54
2022-08-31T04:56:38.425Z,68.64
2022-08-31T04:59:04.826Z,69.04
2022-08-31T05:01:36.131Z,68.77
2022-08-31T05:04:09.666Z,68.69
2022-08-31T05:06:36.095Z,69.00
2022-08-31T05:09:02.400Z,68.58
2022-08-31T05:11:29.002Z,68.49
2022-08-31T05:13:55.537Z,68.78
2022-08-31T05:16:21.860Z,68.70
2022-08-31T05:18:48.461Z,68.92
2022-08-31T05:21:15.121Z,68.18
2022-08-31T05:23:41.702Z,68.52
2022-08-31T05:26:08.543Z,67.86
2022-08-31T05:28:34.991Z,67.23
2022-08-31T05:31:01.982Z,67.84
2022-08-31T05:33:28.391Z,68.06
2022-08-31T05:35:54.826Z,67.71
2022-08-31T05:38:21.154Z,67.84
2022-08-31T05:40:47.548Z,67.90
2022-08-31T05:43:13.900Z,67.33
2022-08-31T05:45:40.286Z,67.73
2022-08-31T05:48:06.633Z,67.28
2022-08-31T05:50:33.082Z,67.18
2022-08-31T05:53:00.471Z,67.31
2022-08-31T05:55:26.814Z,67.61
2022-08-31T05:57:53.177Z,67.26
2022-08-31T06:00:19.737Z,67.21
2022-08-31T06:02:51.155Z,67.54
2022-08-31T06:05:20.164Z,67.53
2022-08-31T06:07:46.586Z,67.18
2022-08-31T06:10:13.114Z,67.14
2022-08-31T06:12:40.377Z,67.07
2022-08-31T06:15:06.734Z,67.42
2022-08-31T06:17:33.505Z,67.23
2022-08-31T06:19:59.796Z,67.40
2022-08-31T06:22:26.097Z,67.12
2022-08-31T06:24:52.864Z,66.81
2022-08-31T06:27:19.525Z,66.60
2022-08-31T06:29:45.834Z,66.65
2022-08-31T06:32:12.152Z,66.98
2022-08-31T06:34:38.560Z,66.76
2022-08-31T06:37:06.046Z,66.96
2022-08-31T06:39:32.519Z,67.10
2022-08-31T06:41:59.014Z,67.04
2022-08-31T06:44:25.408Z,67.16
2022-08-31T06:46:51.738Z,66.96
2022-08-31T06:49:18.221Z,67.19
2022-08-31T06:51:44.586Z,67.07
2022-08-31T06:54:28.576Z,67.08
2022-08-31T06:56:56.083Z,66.82
2022-08-31T06:59:26.455Z,66.76
2022-08-31T07:01:55.033Z,66.56
2022-08-31T07:04:21.584Z,67.22
2022-08-31T07:06:49.977Z,66.92
2022-08-31T07:09:16.299Z,67.05
2022-08-31T07:11:44.820Z,67.05
2022-08-31T07:14:11.433Z,67.21
2022-08-31T07:16:37.829Z,67.11
2022-08-31T07:19:04.454Z,67.01
2022-08-31T07:21:31.288Z,67.12
2022-08-31T07:23:57.706Z,67.14
2022-08-31T07:26:24.202Z,66.66
2022-08-31T07:28:50.730Z,67.02
2022-08-31T07:31:17.261Z,67.15
2022-08-31T07:33:45.898Z,66.72
2022-08-31T07:36:12.494Z,66.89
2022-08-31T07:38:38.859Z,66.62
2022-08-31T07:41:05.280Z,66.48
2022-08-31T07:43:34.554Z,66.36
2022-08-31T07:46:01.034Z,67.04
2022-08-31T07:48:27.498Z,67.18
2022-08-31T07:50:53.857Z,67.13
2022-08-31T07:53:22.982Z,67.30
2022-08-31T07:55:51.752Z,66.90
2022-08-31T07:58:18.261Z,67.36
2022-08-31T08:00:44.710Z,67.05
2022-08-31T08:03:11.256Z,67.47
2022-08-31T08:05:37.715Z,66.92
2022-08-31T08:08:04.241Z,66.90
2022-08-31T08:10:30.680Z,67.20
2022-08-31T08:12:57.083Z,67.12
2022-08-31T08:15:23.556Z,67.23
2022-08-31T08:17:49.869Z,66.93
2022-08-31T08:20:17.334Z,66.79
2022-08-31T08:23:00.457Z,67.03
2022-08-31T08:25:27.031Z,67.30
2022-08-31T08:27:53.730Z,67.44
2022-08-31T08:30:21.041Z,67.23
2022-08-31T08:32:48.226Z,67.24
2022-08-31T08:35:14.561Z,67.25
2022-08-31T08:37:57.082Z,67.37
2022-08-31T08:40:24.002Z,67.29
2022-08-31T08:42:50.396Z,67.18
2022-08-31T08:45:16.712Z,67.11
2022-08-31T08:47:47.602Z,66.99
2022-08-31T08:50:14.015Z,67.05
2022-08-31T08:52:41.293Z,67.34
2022-08-31T08:55:07.607Z,66.99
2022-08-31T08:57:33.988Z,67.25
2022-08-31T09:00:00.350Z,67.35
2022-08-31T09:02:27.906Z,67.16
2022-08-31T09:04:54.276Z,67.09
2022-08-31T09:07:20.660Z,67.00
2022-08-31T09:09:47.067Z,67.67
2022-08-31T09:12:14.957Z,67.14
2022-08-31T09:14:41.467Z,67.06
2022-08-31T09:17:07.764Z,66.90
2022-08-31T09:19:34.202Z,67.04
2022-08-31T09:22:00.826Z,67.33
2022-08-31T09:24:27.214Z,67.10
2022-08-31T09:26:53.628Z,67.10
2022-08-31T09:29:20.019Z,67.26
2022-08-31T09:31:46.496Z,67.51
2022-08-31T09:34:12.972Z,67.47
2022-08-31T09:36:39.358Z,67.38
2022-08-31T09:39:05.931Z,67.19
2022-08-31T09:41:32.502Z,67.61
2022-08-31T09:43:58.846Z,67.54
2022-08-31T09:46:25.272Z,66.94
2022-08-31T09:48:51.626Z,67.12
2022-08-31T09:51:18.011Z,67.42
2022-08-31T09:53:44.581Z,67.11
2022-08-31T09:56:12.690Z,67.33
2022-08-31T09:58:39.096Z,67.30
2022-08-31T10:01:05.501Z,67.60
2022-08-31T10:03:31.994Z,67.56
2022-08-31T10:05:58.646Z,67.77
2022-08-31T10:08:25.030Z,67.09
2022-08-31T10:10:51.397Z,67.27
2022-08-31T10:13:17.789Z,67.63
2022-08-31T10:15:44.520Z,67.33
2022-08-31T10:18:10.962Z,67.19
2022-08-31T10:20:37.323Z,67.76
2022-08-31T10:23:03.856Z,67.49
2022-08-31T10:25:30.210Z,67.67
2022-08-31T10:27:56.585Z,67.28
2022-08-31T10:30:22.954Z,67.93
2022-08-31T10:32:49.297Z,67.48
2022-08-31T10:35:15.805Z,67.78
2022-08-31T10:37:42.302Z,67.03
2022-08-31T10:40:08.732Z,65.86
2022-08-31T10:42:35.179Z,64.81
2022-08-31T10:45:01.508Z,63.61
2022-08-31T10:47:33.947Z,63.78
2022-08-31T10:50:00.961Z,63.30
2022-08-31T10:52:27.425Z,63.38
2022-08-31T10:54:53.672Z,62.97
2022-08-31T10:57:21.740Z,62.68
2022-08-31T10:59:54.078Z,62.78
2022-08-31T11:02:22.361Z,63.29
2022-08-31T11:04:49.065Z,62.83
2022-08-31T11:07:15.656Z,63.30
2022-08-31T11:09:42.141Z,63.31
2022-08-31T11:12:08.465Z,63.46
2022-08-31T11:14:34.901Z,64.41
2022-08-31T11:17:01.363Z,64.37
2022-08-31T11:19:27.915Z,64.41
2022-08-31T11:21:56.350Z,64.54
2022-08-31T11:24:22.740Z,64.84
2022-08-31T11:26:50.028Z,64.35
2022-08-31T11:29:16.536Z,65.00
2022-08-31T11:31:42.978Z,64.98
2022-08-31T11:34:17.446Z,64.91
2022-08-31T11:36:44.336Z,65.44
2022-08-31T11:39:10.676Z,65.01
2022-08-31T11:41:36.994Z,65.41
2022-08-31T11:44:03.330Z,65.38
2022-08-31T11:46:29.906Z,65.53
2022-08-31T11:48:56.526Z,65.63
2022-08-31T11:51:23.217Z,65.84
2022-08-31T11:53:49.536Z,65.69
2022-08-31T11:56:15.864Z,65.66
2022-08-31T11:58:42.170Z,65.67
2022-08-31T12:01:08.561Z,65.49
2022-08-31T12:03:35.169Z,65.99
2022-08-31T12:06:01.838Z,65.90
2022-08-31T12:08:28.214Z,65.78
2022-08-31T12:10:54.627Z,66.01
2022-08-31T12:13:21.179Z,65.89
2022-08-31T12:15:49.968Z,66.18
2022-08-31T12:18:16.334Z,65.94
2022-08-31T12:20:42.888Z,66.26
2022-08-31T12:23:09.406Z,65.99
2022-08-31T12:25:35.894Z,66.38
2022-08-31T12:28:02.216Z,66.36
2022-08-31T12:30:28.630Z,65.89
2022-08-31T12:32:57.216Z,65.88
2022-08-31T12:35:23.602Z,65.91
2022-08-31T12:37:49.971Z,66.11
2022-08-31T12:40:16.427Z,66.38
2022-08-31T12:42:42.870Z,66.23
2022-08-31T12:45:12.620Z,66.68
2022-08-31T12:47:39.226Z,66.25
2022-08-31T12:50:05.669Z,66.41
2022-08-31T12:52:32.561Z,66.13
2022-08-31T12:54:58.945Z,66.11
2022-08-31T12:57:26.903Z,65.96
2022-08-31T13:00:01.025Z,65.91
2022-08-31T13:02:28.437Z,66.18
2022-08-31T13:04:54.860Z,66.24
2022-08-31T13:07:21.491Z,66.19
2022-08-31T13:09:47.753Z,66.18
2022-08-31T13:12:14.325Z,66.31
2022-08-31T13:14:40.747Z,66.14
2022-08-31T13:17:07.224Z,66.00
2022-08-31T13:19:33.666Z,66.51
2022-08-31T13:22:00.221Z,66.15
2022-08-31T13:24:26.673Z,66.19
2022-08-31T13:26:53.034Z,66.22
2022-08-31T13:29:19.393Z,66.38
2022-08-31T13:31:46.478Z,66.28
2022-08-31T13:34:13.079Z,66.32
2022-08-31T13:36:39.464Z,66.37
2022-08-31T13:39:05.832Z,66.48
2022-08-31T13:41:39.480Z,66.63
2022-08-31T13:44:06.052Z,66.42
2022-08-31T13:46:42.374Z,66.77
2022-08-31T13:49:10.037Z,66.57
2022-08-31T13:51:38.392Z,66.34
2022-08-31T13:54:04.968Z,65.86
2022-08-31T13:56:34.894Z,65.92
2022-08-31T13:59:01.487Z,65.87
2022-08-31T14:01:27.894Z,66.38
2022-08-31T14:03:54.494Z,66.34
2022-08-31T14:06:20.794Z,66.36
2022-08-31T14:08:47.157Z,66.51
2022-08-31T14:11:13.823Z,66.22
2022-08-31T14:13:40.126Z,66.13
2022-08-31T14:16:06.480Z,66.31
2022-08-31T14:18:32.885Z,66.25
2022-08-31T14:21:19.449Z,66.30
2022-08-31T14:23:45.643Z,66.26
2022-08-31T14:26:12.062Z,66.14
2022-08-31T14:28:40.378Z,66.54
2022-08-31T14:31:06.776Z,66.81
2022-08-31T14:33:33.243Z,66.93
2022-08-31T14:35:59.592Z,66.78
2022-08-31T14:38:26.335Z,66.86
2022-08-31T14:40:53.710Z,67.02
2022-08-31T14:43:21.034Z,67.06
2022-08-31T14:45:47.724Z,66.73
2022-08-31T14:48:14.096Z,66.81
2022-08-31T14:50:40.507Z,66.81
2022-08-31T14:53:06.900Z,66.99
2022-08-31T14:55:33.238Z,67.40
2022-08-31T14:57:59.608Z,67.25
2022-08-31T15:00:27.294Z,67.25
2022-08-31T15:02:53.832Z,66.98
2022-08-31T15:05:20.285Z,67.40
2022-08-31T15:07:47.249Z,67.17
2022-08-31T15:10:13.731Z,66.99
2022-08-31T15:12:40.327Z,67.42
2022-08-31T15:15:06.800Z,67.02
2022-08-31T15:17:33.215Z,67.18
2022-08-31T15:19:59.751Z,67.22
2022-08-31T15:22:26.380Z,67.16
2022-08-31T15:24:52.867Z,67.20
2022-08-31T15:27:19.192Z,67.07
2022-08-31T15:29:45.540Z,66.95
2022-08-31T15:32:12.021Z,67.30
2022-08-31T15:34:38.387Z,67.01
2022-08-31T15:37:04.716Z,67.29
2022-08-31T15:39:31.082Z,66.87
2022-08-31T15:41:57.462Z,67.40
2022-08-31T15:44:23.819Z,66.96
2022-08-31T15:46:50.201Z,67.25
2022-08-31T15:49:16.508Z,67.21
2022-08-31T15:51:42.966Z,66.86
2022-08-31T15:54:21.814Z,67.24
2022-08-31T15:56:49.126Z,67.17
2022-08-31T15:59:15.496Z,67.23
2022-08-31T16:01:41.958Z,66.96
2022-08-31T16:04:08.388Z,67.15
2022-08-31T16:06:35.317Z,67.17
2022-08-31T16:09:01.705Z,67.09
2022-08-31T16:11:28.265Z,66.91
2022-08-31T16:13:54.702Z,66.86
2022-08-31T16:16:21.195Z,66.85
2022-08-31T16:18:47.685Z,66.70
2022-08-31T16:21:14.003Z,66.94
2022-08-31T16:23:40.419Z,67.22
2022-08-31T16:26:07.552Z,67.17
2022-08-31T16:28:34.666Z,67.02
2022-08-31T16:31:01.045Z,66.94
2022-08-31T16:33:27.420Z,66.69
2022-08-31T16:35:53.936Z,66.93
2022-08-31T16:38:20.488Z,66.96
2022-08-31T16:40:47.071Z,66.78
2022-08-31T16:43:13.449Z,67.12
2022-08-31T16:45:40.025Z,66.45
2022-08-31T16:48:06.433Z,66.95
2022-08-31T16:50:32.814Z,66.96
2022-08-31T16:52:59.179Z,66.88
2022-08-31T16:55:25.538Z,66.64
2022-08-31T16:57:52.138Z,67.07
2022-08-31T17:00:18.522Z,66.83
2022-08-31T17:02:44.956Z,66.96
2022-08-31T17:05:11.504Z,66.88
2022-08-31T17:07:37.897Z,66.98
2022-08-31T17:10:08.335Z,66.71
2022-08-31T17:12:34.960Z,67.05
2022-08-31T17:15:01.378Z,66.99
2022-08-31T17:17:27.868Z,66.81
2022-08-31T17:19:54.452Z,66.58
2022-08-31T17:22:25.695Z,66.99
2022-08-31T17:24:52.396Z,66.95
2022-08-31T17:27:18.861Z,67.14
2022-08-31T17:29:45.497Z,67.09
2022-08-31T17:32:12.230Z,66.73
2022-08-31T17:34:38.692Z,66.72
2022-08-31T17:37:05.000Z,66.91
2022-08-31T17:39:32.077Z,67.07
2022-08-31T17:41:58.700Z,66.73
2022-08-31T17:44:25.083Z,67.18
2022-08-31T17:46:51.928Z,67.08
2022-08-31T17:49:19.435Z,66.90
2022-08-31T17:51:46.003Z,66.78
2022-08-31T17:54:12.666Z,66.86
2022-08-31T17:56:39.161Z,66.79
2022-08-31T17:59:08.297Z,66.74
2022-08-31T18:01:35.474Z,67.13
2022-08-31T18:04:02.080Z,66.78
2022-08-31T18:06:28.426Z,67.05
2022-08-31T18:08:54.936Z,66.81
2022-08-31T18:11:21.468Z,66.76
2022-08-31T18:13:51.704Z,67.04
2022-08-31T18:16:20.203Z,66.88
2022-08-31T18:18:46.614Z,66.65
2022-08-31T18:21:12.959Z,66.90
2022-08-31T18:23:39.298Z,66.81
2022-08-31T18:26:06.286Z,66.77
2022-08-31T18:28:33.235Z,66.11
2022-08-31T18:30:59.894Z,66.78
2022-08-31T18:33:26.531Z,66.79
2022-08-31T18:35:53.030Z,66.76
2022-08-31T18:38:19.795Z,66.82
2022-08-31T18:40:46.320Z,66.62
2022-08-31T18:43:12.759Z,66.74
2022-08-31T18:45:39.886Z,66.73
2022-08-31T18:48:25.321Z,66.81
2022-08-31T18:50:52.177Z,67.16
2022-08-31T18:53:28.638Z,67.21
2022-08-31T18:55:56.331Z,67.25
2022-08-31T18:58:22.748Z,66.86
2022-08-31T19:00:49.464Z,65.13
2022-08-31T19:03:16.005Z,65.57
2022-08-31T19:05:42.528Z,64.92
2022-08-31T19:08:09.227Z,64.72
2022-08-31T19:10:35.614Z,64.75
2022-08-31T19:13:02.293Z,64.66
2022-08-31T19:15:33.589Z,64.82
2022-08-31T19:18:02.617Z,64.70
2022-08-31T19:20:29.376Z,64.66
2022-08-31T19:22:57.008Z,65.53
2022-08-31T19:25:23.562Z,65.11
2022-08-31T19:27:50.152Z,64.87
2022-08-31T19:30:16.481Z,64.08
2022-08-31T19:32:42.829Z,64.45
2022-08-31T19:35:09.432Z,64.61
2022-08-31T19:37:35.977Z,63.92
2022-08-31T19:40:02.430Z,64.65
2022-08-31T19:45:23.237Z,64.56
2022-08-31T19:47:50.078Z,64.45
2022-08-31T19:50:16.555Z,64.01
2022-08-31T19:52:43.056Z,64.38
2022-08-31T19:55:09.743Z,63.45
2022-08-31T19:57:36.543Z,64.48
2022-08-31T20:00:03.548Z,64.77
2022-08-31T20:02:30.842Z,64.45
2022-08-31T20:04:57.305Z,63.58
2022-08-31T20:07:23.786Z,64.04
2022-08-31T20:09:53.555Z,64.51
2022-08-31T20:12:19.990Z,64.45
2022-08-31T20:14:46.493Z,63.95
2022-08-31T20:17:13.093Z,64.45
2022-08-31T20:19:39.570Z,64.95
2022-08-31T20:22:06.176Z,64.85
2022-08-31T20:24:32.636Z,65.25
2022-08-31T20:27:02.000Z,64.96
2022-08-31T20:29:35.792Z,64.78
2022-08-31T20:32:03.200Z,65.00
2022-08-31T20:34:29.999Z,64.62
2022-08-31T20:37:00.636Z,65.11
2022-08-31T20:39:27.822Z,64.74
2022-08-31T20:41:54.227Z,64.71
2022-08-31T20:44:20.608Z,64.97
2022-08-31T20:46:47.240Z,64.31
2022-08-31T20:49:13.590Z,64.58
2022-08-31T20:51:41.204Z,64.61
2022-08-31T20:54:07.782Z,64.49
2022-08-31T20:56:36.096Z,64.57
2022-08-31T20:59:02.620Z,64.41
2022-08-31T21:01:28.979Z,63.99
2022-08-31T21:03:55.567Z,64.40
2022-08-31T21:06:21.937Z,64.64
2022-08-31T21:08:48.368Z,64.78
2022-08-31T21:11:14.722Z,64.71
2022-08-31T21:13:41.166Z,64.53
2022-08-31T21:16:07.716Z,65.03
2022-08-31T21:18:34.073Z,64.76
2022-08-31T21:21:01.243Z,64.61
2022-08-31T21:23:27.833Z,64.48
2022-08-31T21:25:54.426Z,64.57
2022-08-31T21:28:20.730Z,64.19
2022-08-31T21:30:47.204Z,64.48
2022-08-31T21:33:13.660Z,63.61
2022-08-31T21:35:40.034Z,63.46
2022-08-31T21:38:06.429Z,63.25
2022-08-31T21:40:34.091Z,63.35
2022-08-31T21:43:00.526Z,62.57
2022-08-31T21:45:27.057Z,62.95
2022-08-31T21:47:53.603Z,62.85
2022-08-31T21:50:19.918Z,62.73
2022-08-31T21:52:46.424Z,62.53
2022-08-31T21:55:12.729Z,61.38
2022-08-31T21:57:39.399Z,61.80
2022-08-31T22:00:05.724Z,61.69
2022-08-31T22:02:32.311Z,61.05
2022-08-31T22:04:58.890Z,61.28
2022-08-31T22:07:25.439Z,61.45
2022-08-31T22:09:53.021Z,60.72
2022-08-31T22:12:20.444Z,61.26
2022-08-31T22:14:46.776Z,61.25
2022-08-31T22:17:15.011Z,61.19
2022-08-31T22:19:42.633Z,60.96
2022-08-31T22:22:09.211Z,61.00
2022-08-31T22:24:38.980Z,60.59
2022-08-31T22:27:06.551Z,61.15
2022-08-31T22:29:32.843Z,60.97
2022-08-31T22:31:59.302Z,60.78
2022-08-31T22:34:25.592Z,60.87
2022-08-31T22:36:51.899Z,61.01
2022-08-31T22:39:20.451Z,61.66
2022-08-31T22:41:46.816Z,60.41
2022-08-31T22:44:13.189Z,60.42
2022-08-31T22:46:39.674Z,60.84
2022-08-31T22:49:06.241Z,60.54
2022-08-31T22:51:32.568Z,60.22
2022-08-31T22:53:58.931Z,59.72
2022-08-31T22:56:25.333Z,61.27
2022-08-31T22:58:51.957Z,61.33
2022-08-31T23:01:18.363Z,61.08
2022-08-31T23:03:44.888Z,61.27
2022-08-31T23:06:11.325Z,61.97
2022-08-31T23:08:37.693Z,61.80
2022-08-31T23:11:04.045Z,61.93
2022-08-31T23:13:30.360Z,61.63
2022-08-31T23:15:56.736Z,61.70
2022-08-31T23:18:23.118Z,62.16
2022-08-31T23:20:49.426Z,61.79
2022-08-31T23:23:15.753Z,61.87
2022-08-31T23:25:42.135Z,61.96
2022-08-31T23:28:08.540Z,62.05
2022-08-31T23:30:34.897Z,62.25
2022-08-31T23:33:01.724Z,62.15
2022-08-31T23:35:28.078Z,62.31
2022-08-31T23:37:55.421Z,62.59
2022-08-31T23:40:21.840Z,62.59
2022-08-31T23:42:48.241Z,62.38
2022-08-31T23:45:14.810Z,62.90
2022-08-31T23:47:41.486Z,62.29
2022-08-31T23:50:07.852Z,62.87
2022-08-31T23:52:34.222Z,62.76
2022-08-31T23:55:00.681Z,62.60
2022-08-31T23:57:31.819Z,62.79
